MGBUS CYYT-EGLF
Flight info
| Callsign | MGBUS |
|---|---|
| Flight time | N/A |
| Altitude | 41000 |
| Route | ELSIR/M084F410 DCT 51N050W 53N040W 53N030W 53N020W DCT TOBOR/N0480F410 DCT RILED |
| Aircraft | C700/M-SBDGHM1RWXY/LB2 |
Departure
| Time | 2026-04-24 10:14 |
|---|---|
| Airport | St. John's International Airport (CYYT) |
Arrival
| Time | N/A |
|---|---|
| Airport | Farnborough Airport (EGLF) |
| Time | Latitude | Longitude | Altitude | Speed | Heading |
|---|---|---|---|---|---|
| 2026-04-24 09:45 | 47.61035 | -52.73960 | 443 ft | 0 kts | 264° |
| 2026-04-24 09:50 | 47.61035 | -52.73959 | 443 ft | 0 kts | 264° |
| 2026-04-24 10:01 | 47.61027 | -52.73975 | 443 ft | 5 kts | 226° |
| 2026-04-24 10:02 | 47.61060 | -52.74016 | 443 ft | 12 kts | 19° |
| 2026-04-24 10:02 | 47.61138 | -52.73959 | 443 ft | 12 kts | 4° |
| 2026-04-24 10:02 | 47.61222 | -52.73968 | 435 ft | 11 kts | 357° |
| 2026-04-24 10:02 | 47.61306 | -52.73961 | 443 ft | 13 kts | 358° |
| 2026-04-24 10:03 | 47.61376 | -52.74019 | 443 ft | 12 kts | 302° |
| 2026-04-24 10:03 | 47.61414 | -52.74143 | 437 ft | 14 kts | 293° |
| 2026-04-24 10:03 | 47.61455 | -52.74282 | 440 ft | 13 kts | 294° |
| 2026-04-24 10:03 | 47.61508 | -52.74348 | 432 ft | 11 kts | 16° |
| 2026-04-24 10:04 | 47.61573 | -52.74256 | 440 ft | 14 kts | 47° |
| 2026-04-24 10:04 | 47.61646 | -52.74300 | 432 ft | 13 kts | 319° |
| 2026-04-24 10:04 | 47.61720 | -52.74396 | 434 ft | 14 kts | 319° |
| 2026-04-24 10:04 | 47.61783 | -52.74476 | 448 ft | 9 kts | 319° |
| 2026-04-24 10:05 | 47.61828 | -52.74533 | 453 ft | 9 kts | 319° |
| 2026-04-24 10:05 | 47.61882 | -52.74603 | 456 ft | 12 kts | 319° |
| 2026-04-24 10:05 | 47.61949 | -52.74689 | 456 ft | 14 kts | 318° |
| 2026-04-24 10:05 | 47.62013 | -52.74768 | 456 ft | 8 kts | 336° |
| 2026-04-24 10:06 | 47.62063 | -52.74712 | 453 ft | 13 kts | 51° |
| 2026-04-24 10:06 | 47.62160 | -52.74636 | 447 ft | 7 kts | 321° |
| 2026-04-24 10:06 | 47.62204 | -52.74691 | 446 ft | 10 kts | 319° |
| 2026-04-24 10:07 | 47.62266 | -52.74770 | 446 ft | 13 kts | 319° |
| 2026-04-24 10:07 | 47.62342 | -52.74867 | 444 ft | 17 kts | 319° |
| 2026-04-24 10:07 | 47.62441 | -52.75001 | 434 ft | 21 kts | 307° |
| 2026-04-24 10:07 | 47.62458 | -52.75215 | 441 ft | 23 kts | 266° |
| 2026-04-24 10:08 | 47.62447 | -52.75454 | 437 ft | 23 kts | 266° |
| 2026-04-24 10:08 | 47.62437 | -52.75663 | 455 ft | 19 kts | 265° |
| 2026-04-24 10:08 | 47.62428 | -52.75848 | 459 ft | 18 kts | 265° |
| 2026-04-24 10:08 | 47.62420 | -52.76017 | 464 ft | 15 kts | 266° |
| 2026-04-24 10:09 | 47.62412 | -52.76189 | 471 ft | 17 kts | 266° |
| 2026-04-24 10:09 | 47.62403 | -52.76372 | 469 ft | 19 kts | 266° |
| 2026-04-24 10:09 | 47.62394 | -52.76576 | 468 ft | 20 kts | 266° |
| 2026-04-24 10:09 | 47.62385 | -52.76789 | 462 ft | 20 kts | 266° |
| 2026-04-24 10:10 | 47.62372 | -52.76988 | 458 ft | 11 kts | 258° |
| 2026-04-24 10:10 | 47.62358 | -52.77080 | 458 ft | 6 kts | 326° |
| 2026-04-24 10:10 | 47.62370 | -52.77053 | 458 ft | 0 kts | 85° |
| 2026-04-24 10:13 | 47.62372 | -52.77008 | 458 ft | 21 kts | 85° |
| 2026-04-24 10:13 | 47.62396 | -52.76483 | 468 ft | 81 kts | 86° |
| 2026-04-24 10:13 | 47.62452 | -52.75309 | 463 ft | 145 kts | 86° |
| 2026-04-24 10:13 | 47.62479 | -52.73688 | 1042 ft | 166 kts | 89° |
| 2026-04-24 10:14 | 47.62516 | -52.71808 | 1709 ft | 199 kts | 88° |
| 2026-04-24 10:14 | 47.62565 | -52.69562 | 2332 ft | 237 kts | 88° |
| 2026-04-24 10:14 | 47.62619 | -52.66930 | 2936 ft | 273 kts | 88° |
| 2026-04-24 10:14 | 47.62679 | -52.63924 | 3520 ft | 311 kts | 88° |
| 2026-04-24 10:15 | 47.62739 | -52.60562 | 4087 ft | 347 kts | 89° |
| 2026-04-24 10:15 | 47.62788 | -52.56797 | 4655 ft | 383 kts | 89° |
| 2026-04-24 10:15 | 47.62900 | -52.52710 | 4986 ft | 395 kts | 82° |
| 2026-04-24 10:15 | 47.63825 | -52.49111 | 5000 ft | 364 kts | 57° |
| 2026-04-24 10:16 | 47.65709 | -52.46238 | 5052 ft | 415 kts | 42° |
| 2026-04-24 10:16 | 47.67851 | -52.43358 | 5171 ft | 401 kts | 45° |
| 2026-04-24 10:16 | 47.69761 | -52.40595 | 5215 ft | 369 kts | 46° |
| 2026-04-24 10:16 | 47.71513 | -52.37959 | 4672 ft | 354 kts | 47° |
| 2026-04-24 10:17 | 47.73135 | -52.35452 | 4631 ft | 320 kts | 47° |
| 2026-04-24 10:17 | 47.74611 | -52.33156 | 4731 ft | 296 kts | 47° |
| 2026-04-24 10:17 | 47.75980 | -52.31001 | 5921 ft | 277 kts | 48° |
| 2026-04-24 10:17 | 47.77256 | -52.28962 | 7697 ft | 265 kts | 49° |
| 2026-04-24 10:18 | 47.78527 | -52.26887 | 8807 ft | 277 kts | 50° |
| 2026-04-24 10:18 | 47.80044 | -52.25084 | 9937 ft | 288 kts | 25° |
| 2026-04-24 10:18 | 47.82047 | -52.24626 | 11115 ft | 296 kts | 0° |
| 2026-04-24 10:18 | 47.84086 | -52.24842 | 12375 ft | 297 kts | 357° |
| 2026-04-24 10:19 | 47.86151 | -52.24932 | 13638 ft | 297 kts | 4° |
| 2026-04-24 10:19 | 47.88201 | -52.24625 | 14751 ft | 295 kts | 11° |
| 2026-04-24 10:19 | 47.90229 | -52.24197 | 15880 ft | 294 kts | 9° |
| 2026-04-24 10:19 | 47.92268 | -52.23886 | 17006 ft | 292 kts | 7° |
| 2026-04-24 10:20 | 47.94278 | -52.23633 | 18081 ft | 288 kts | 7° |
| 2026-04-24 10:20 | 47.96257 | -52.23349 | 18997 ft | 283 kts | 8° |
| 2026-04-24 10:20 | 47.98204 | -52.23053 | 19876 ft | 279 kts | 8° |
| 2026-04-24 10:20 | 48.00125 | -52.22767 | 20723 ft | 276 kts | 7° |
| 2026-04-24 10:21 | 48.02021 | -52.22490 | 21518 ft | 272 kts | 7° |
| 2026-04-24 10:21 | 48.03899 | -52.22214 | 22277 ft | 269 kts | 7° |
| 2026-04-24 10:21 | 48.05761 | -52.21939 | 23002 ft | 268 kts | 7° |
| 2026-04-24 10:21 | 48.07610 | -52.21666 | 23653 ft | 267 kts | 6° |
| 2026-04-24 10:22 | 48.09431 | -52.21397 | 24209 ft | 266 kts | 7° |
| 2026-04-24 10:22 | 48.11275 | -52.21123 | 24777 ft | 266 kts | 7° |
| 2026-04-24 10:22 | 48.13118 | -52.20851 | 25332 ft | 266 kts | 7° |
| 2026-04-24 10:22 | 48.14991 | -52.20571 | 25694 ft | 275 kts | 7° |
| 2026-04-24 10:23 | 48.16924 | -52.20284 | 26075 ft | 282 kts | 7° |
| 2026-04-24 10:23 | 48.18906 | -52.19989 | 26461 ft | 290 kts | 7° |
| 2026-04-24 10:23 | 48.20939 | -52.19686 | 26835 ft | 297 kts | 8° |
| 2026-04-24 10:23 | 48.23027 | -52.19375 | 27229 ft | 305 kts | 8° |
| 2026-04-24 10:24 | 48.24438 | -52.19165 | 27490 ft | 311 kts | 8° |
| 2026-04-24 10:24 | 48.26625 | -52.18837 | 27894 ft | 319 kts | 8° |
| 2026-04-24 10:24 | 48.28867 | -52.18504 | 28331 ft | 328 kts | 10° |
| 2026-04-24 10:24 | 48.31167 | -52.18157 | 28755 ft | 337 kts | 10° |
| 2026-04-24 10:25 | 48.33540 | -52.17800 | 29174 ft | 346 kts | 10° |
| 2026-04-24 10:25 | 48.35966 | -52.17438 | 29606 ft | 355 kts | 11° |
| 2026-04-24 10:25 | 48.38447 | -52.17068 | 30038 ft | 362 kts | 11° |
| 2026-04-24 10:25 | 48.40978 | -52.16689 | 30449 ft | 368 kts | 10° |
| 2026-04-24 10:26 | 48.43514 | -52.16309 | 30872 ft | 373 kts | 10° |
| 2026-04-24 10:26 | 48.46109 | -52.15920 | 31293 ft | 377 kts | 9° |
| 2026-04-24 10:26 | 48.48728 | -52.15527 | 31753 ft | 379 kts | 9° |
| 2026-04-24 10:26 | 48.51361 | -52.15132 | 32225 ft | 381 kts | 9° |
| 2026-04-24 10:27 | 48.53998 | -52.14735 | 32700 ft | 381 kts | 9° |
| 2026-04-24 10:27 | 48.56639 | -52.14337 | 33175 ft | 381 kts | 8° |
| 2026-04-24 10:27 | 48.59280 | -52.13939 | 33647 ft | 380 kts | 8° |
| 2026-04-24 10:27 | 48.61912 | -52.13542 | 34056 ft | 379 kts | 8° |
| 2026-04-24 10:28 | 48.64535 | -52.13146 | 34415 ft | 378 kts | 8° |
| 2026-04-24 10:28 | 48.67150 | -52.12749 | 34766 ft | 377 kts | 8° |
| 2026-04-24 10:28 | 48.69758 | -52.12355 | 35097 ft | 375 kts | 8° |
| 2026-04-24 10:28 | 48.72325 | -52.11966 | 35406 ft | 374 kts | 9° |
| 2026-04-24 10:29 | 48.74908 | -52.11574 | 35728 ft | 373 kts | 9° |
| 2026-04-24 10:29 | 48.77492 | -52.11181 | 36030 ft | 371 kts | 9° |
| 2026-04-24 10:29 | 48.80062 | -52.10791 | 36316 ft | 370 kts | 9° |
| 2026-04-24 10:29 | 48.82623 | -52.10400 | 36587 ft | 369 kts | 8° |
| 2026-04-24 10:30 | 48.85182 | -52.10011 | 36841 ft | 368 kts | 9° |
| 2026-04-24 10:30 | 48.87728 | -52.09622 | 37083 ft | 368 kts | 8° |
| 2026-04-24 10:30 | 48.90268 | -52.09234 | 37312 ft | 367 kts | 9° |
| 2026-04-24 10:30 | 48.92810 | -52.08846 | 37529 ft | 367 kts | 8° |
| 2026-04-24 10:31 | 48.95347 | -52.08457 | 37735 ft | 366 kts | 8° |
| 2026-04-24 10:31 | 48.97854 | -52.08074 | 37915 ft | 366 kts | 9° |
| 2026-04-24 10:31 | 49.00390 | -52.07684 | 38108 ft | 365 kts | 9° |
| 2026-04-24 10:31 | 49.02919 | -52.07296 | 38287 ft | 365 kts | 9° |
| 2026-04-24 10:32 | 49.05446 | -52.06908 | 38465 ft | 365 kts | 9° |
| 2026-04-24 10:32 | 49.07975 | -52.06519 | 38596 ft | 364 kts | 9° |
| 2026-04-24 10:32 | 49.10497 | -52.06130 | 38721 ft | 364 kts | 9° |
| 2026-04-24 10:32 | 49.13023 | -52.05741 | 38840 ft | 364 kts | 9° |
| 2026-04-24 10:33 | 49.15541 | -52.05353 | 38955 ft | 364 kts | 9° |
| 2026-04-24 10:33 | 49.18034 | -52.04967 | 39064 ft | 363 kts | 9° |
| 2026-04-24 10:33 | 49.20553 | -52.04578 | 39170 ft | 363 kts | 9° |
| 2026-04-24 10:34 | 49.25580 | -52.03799 | 39369 ft | 363 kts | 9° |
| 2026-04-24 10:34 | 49.30609 | -52.03019 | 39554 ft | 363 kts | 9° |
| 2026-04-24 10:35 | 49.35636 | -52.02237 | 39732 ft | 363 kts | 9° |
| 2026-04-24 10:35 | 49.40655 | -52.01454 | 39896 ft | 363 kts | 9° |
| 2026-04-24 10:36 | 49.45648 | -52.00675 | 40053 ft | 363 kts | 9° |
| 2026-04-24 10:36 | 49.50456 | -51.98721 | 40189 ft | 356 kts | 30° |
| 2026-04-24 10:36 | 49.52543 | -51.96727 | 40259 ft | 352 kts | 42° |
| 2026-04-24 10:37 | 49.54426 | -51.94322 | 40339 ft | 350 kts | 43° |
| 2026-04-24 10:37 | 49.58185 | -51.89519 | 40458 ft | 351 kts | 43° |
| 2026-04-24 10:38 | 49.61915 | -51.84719 | 40577 ft | 351 kts | 43° |
| 2026-04-24 10:38 | 49.65668 | -51.79890 | 40683 ft | 351 kts | 43° |
| 2026-04-24 10:39 | 49.69421 | -51.75047 | 40772 ft | 352 kts | 43° |
| 2026-04-24 10:39 | 49.73182 | -51.70184 | 40806 ft | 354 kts | 43° |
| 2026-04-24 10:40 | 49.76985 | -51.65257 | 40814 ft | 358 kts | 43° |
| 2026-04-24 10:40 | 49.80794 | -51.60312 | 40811 ft | 361 kts | 44° |
| 2026-04-24 10:41 | 49.84662 | -51.55279 | 40809 ft | 365 kts | 44° |
| 2026-04-24 10:41 | 49.88568 | -51.50186 | 40797 ft | 368 kts | 44° |
| 2026-04-24 10:42 | 49.92504 | -51.45042 | 40801 ft | 371 kts | 44° |
| 2026-04-24 10:42 | 49.96471 | -51.39847 | 40808 ft | 374 kts | 44° |
| 2026-04-24 10:43 | 50.00473 | -51.34594 | 40808 ft | 378 kts | 44° |
| 2026-04-24 10:43 | 50.04503 | -51.29291 | 40808 ft | 381 kts | 44° |
| 2026-04-24 10:44 | 50.08542 | -51.23965 | 40803 ft | 384 kts | 44° |
| 2026-04-24 10:44 | 50.12629 | -51.18563 | 40808 ft | 386 kts | 44° |
| 2026-04-24 10:45 | 50.16746 | -51.13110 | 40806 ft | 389 kts | 44° |
| 2026-04-24 10:45 | 50.20885 | -51.07613 | 40806 ft | 392 kts | 44° |
| 2026-04-24 10:46 | 50.24712 | -51.02520 | 40794 ft | 394 kts | 44° |
| 2026-04-24 10:46 | 50.28874 | -50.96968 | 40800 ft | 396 kts | 44° |
| 2026-04-24 10:47 | 50.33085 | -50.91337 | 40804 ft | 399 kts | 44° |
| 2026-04-24 10:47 | 50.37315 | -50.85668 | 40810 ft | 401 kts | 44° |
| 2026-04-24 10:48 | 50.41562 | -50.79962 | 40818 ft | 403 kts | 44° |
| 2026-04-24 10:48 | 50.45875 | -50.74147 | 40815 ft | 416 kts | 44° |
| 2026-04-24 10:49 | 50.50342 | -50.68115 | 40818 ft | 431 kts | 44° |
| 2026-04-24 10:49 | 50.54936 | -50.61894 | 40822 ft | 444 kts | 44° |
| 2026-04-24 10:50 | 50.59689 | -50.55440 | 40821 ft | 457 kts | 44° |
| 2026-04-24 10:50 | 50.64568 | -50.48797 | 40815 ft | 469 kts | 44° |
| 2026-04-24 10:51 | 50.69532 | -50.42019 | 40825 ft | 479 kts | 44° |
| 2026-04-24 10:51 | 50.74584 | -50.35104 | 40827 ft | 479 kts | 44° |
| 2026-04-24 10:52 | 50.79600 | -50.28215 | 40823 ft | 476 kts | 44° |
| 2026-04-24 10:52 | 50.84590 | -50.21341 | 40820 ft | 474 kts | 44° |
| 2026-04-24 10:53 | 50.89580 | -50.14446 | 40824 ft | 477 kts | 44° |
| 2026-04-24 10:53 | 50.94573 | -50.07527 | 40826 ft | 480 kts | 44° |
| 2026-04-24 10:54 | 50.99202 | -49.99979 | 40834 ft | 474 kts | 56° |
| 2026-04-24 10:54 | 51.02302 | -49.90858 | 40841 ft | 467 kts | 70° |
| 2026-04-24 10:55 | 51.04690 | -49.81348 | 40837 ft | 467 kts | 70° |
| 2026-04-24 10:55 | 51.07098 | -49.71731 | 40842 ft | 469 kts | 70° |
| 2026-04-24 10:56 | 51.09510 | -49.62048 | 40843 ft | 471 kts | 70° |
| 2026-04-24 10:56 | 51.11922 | -49.52331 | 40847 ft | 471 kts | 70° |
| 2026-04-24 10:57 | 51.14302 | -49.42701 | 40834 ft | 468 kts | 71° |
| 2026-04-24 10:57 | 51.16673 | -49.33062 | 40832 ft | 466 kts | 71° |
| 2026-04-24 10:58 | 51.19041 | -49.23390 | 40831 ft | 469 kts | 71° |
| 2026-04-24 10:58 | 51.21399 | -49.13720 | 40835 ft | 472 kts | 71° |
| 2026-04-24 10:59 | 51.23769 | -49.03959 | 40835 ft | 470 kts | 71° |
| 2026-04-24 10:59 | 51.26120 | -48.94229 | 40835 ft | 468 kts | 71° |
| 2026-04-24 11:00 | 51.28450 | -48.84544 | 40844 ft | 467 kts | 71° |
| 2026-04-24 11:00 | 51.30783 | -48.74802 | 40839 ft | 470 kts | 71° |
| 2026-04-24 11:01 | 51.33120 | -48.65005 | 40839 ft | 473 kts | 71° |
| 2026-04-24 11:01 | 51.35450 | -48.55189 | 40836 ft | 471 kts | 71° |
| 2026-04-24 11:02 | 51.37744 | -48.45482 | 40834 ft | 468 kts | 71° |
| 2026-04-24 11:02 | 51.40038 | -48.35729 | 40843 ft | 468 kts | 71° |
| 2026-04-24 11:03 | 51.42342 | -48.25888 | 40847 ft | 473 kts | 71° |
| 2026-04-24 11:03 | 51.44648 | -48.16001 | 40849 ft | 471 kts | 71° |
| 2026-04-24 11:04 | 51.46918 | -48.06214 | 40832 ft | 469 kts | 71° |
| 2026-04-24 11:04 | 51.49175 | -47.96445 | 40833 ft | 468 kts | 71° |
| 2026-04-24 11:05 | 51.51439 | -47.86593 | 40833 ft | 470 kts | 72° |
| 2026-04-24 11:05 | 51.53690 | -47.76760 | 40829 ft | 473 kts | 72° |
| 2026-04-24 11:06 | 51.55956 | -47.66808 | 40829 ft | 473 kts | 72° |
| 2026-04-24 11:06 | 51.58205 | -47.56890 | 40829 ft | 470 kts | 72° |
| 2026-04-24 11:07 | 51.61530 | -47.42133 | 40830 ft | 470 kts | 72° |
| 2026-04-24 11:07 | 51.63752 | -47.32219 | 40831 ft | 472 kts | 72° |
| 2026-04-24 11:08 | 51.65977 | -47.22238 | 40831 ft | 474 kts | 72° |
| 2026-04-24 11:08 | 51.68197 | -47.12240 | 40831 ft | 473 kts | 72° |
| 2026-04-24 11:09 | 51.70399 | -47.02267 | 40829 ft | 471 kts | 72° |
| 2026-04-24 11:09 | 51.72574 | -46.92372 | 40823 ft | 470 kts | 72° |
| 2026-04-24 11:10 | 51.74748 | -46.82434 | 40826 ft | 469 kts | 72° |
| 2026-04-24 11:10 | 51.76555 | -46.74137 | 40826 ft | 471 kts | 72° |
| 2026-04-24 11:11 | 51.78727 | -46.64120 | 40828 ft | 474 kts | 72° |
| 2026-04-24 11:11 | 51.80902 | -46.54037 | 40830 ft | 476 kts | 72° |
| 2026-04-24 11:12 | 51.83068 | -46.43950 | 40824 ft | 473 kts | 72° |
| 2026-04-24 11:12 | 51.85203 | -46.33958 | 40817 ft | 471 kts | 72° |
| 2026-04-24 11:13 | 51.87328 | -46.23962 | 40818 ft | 470 kts | 73° |
| 2026-04-24 11:13 | 51.89451 | -46.13925 | 40829 ft | 473 kts | 72° |
| 2026-04-24 11:14 | 51.91579 | -46.03815 | 40823 ft | 474 kts | 73° |
| 2026-04-24 11:14 | 51.93692 | -45.93726 | 40820 ft | 471 kts | 73° |
| 2026-04-24 11:15 | 51.95774 | -45.83734 | 40810 ft | 470 kts | 73° |
| 2026-04-24 11:15 | 51.97854 | -45.73704 | 40809 ft | 469 kts | 73° |
| 2026-04-24 11:16 | 51.99934 | -45.63618 | 40822 ft | 472 kts | 73° |
| 2026-04-24 11:16 | 52.02014 | -45.53485 | 40814 ft | 474 kts | 73° |
| 2026-04-24 11:17 | 52.04090 | -45.43319 | 40812 ft | 474 kts | 73° |
| 2026-04-24 11:17 | 52.06157 | -45.33145 | 40811 ft | 473 kts | 73° |
| 2026-04-24 11:18 | 52.08198 | -45.23050 | 40811 ft | 472 kts | 73° |
| 2026-04-24 11:18 | 52.10237 | -45.12908 | 40808 ft | 472 kts | 73° |
| 2026-04-24 11:19 | 52.12266 | -45.02767 | 40802 ft | 471 kts | 73° |
| 2026-04-24 11:19 | 52.14287 | -44.92610 | 40803 ft | 471 kts | 73° |
| 2026-04-24 11:20 | 52.16298 | -44.82448 | 40799 ft | 471 kts | 73° |
| 2026-04-24 11:20 | 52.18289 | -44.72337 | 40806 ft | 470 kts | 73° |
| 2026-04-24 11:21 | 52.20276 | -44.62196 | 40800 ft | 469 kts | 73° |
| 2026-04-24 11:21 | 52.22255 | -44.52040 | 40795 ft | 468 kts | 73° |
| 2026-04-24 11:22 | 52.24218 | -44.41908 | 40795 ft | 468 kts | 74° |
| 2026-04-24 11:22 | 52.26172 | -44.31774 | 40797 ft | 472 kts | 74° |
| 2026-04-24 11:23 | 52.28139 | -44.21512 | 40801 ft | 474 kts | 74° |
| 2026-04-24 11:23 | 52.30097 | -44.11252 | 40792 ft | 471 kts | 74° |
| 2026-04-24 11:24 | 52.32034 | -44.01036 | 40789 ft | 468 kts | 74° |
| 2026-04-24 11:24 | 52.33946 | -43.90902 | 40791 ft | 471 kts | 74° |
| 2026-04-24 11:25 | 52.35876 | -43.80616 | 40796 ft | 474 kts | 74° |
| 2026-04-24 11:25 | 52.37799 | -43.70312 | 40787 ft | 471 kts | 74° |
| 2026-04-24 11:26 | 52.39694 | -43.60103 | 40786 ft | 467 kts | 74° |
| 2026-04-24 11:26 | 52.41579 | -43.49889 | 40787 ft | 470 kts | 74° |
| 2026-04-24 11:27 | 52.43458 | -43.39653 | 40787 ft | 472 kts | 75° |
| 2026-04-24 11:27 | 52.45336 | -43.29365 | 40783 ft | 470 kts | 75° |
| 2026-04-24 11:28 | 52.47197 | -43.19110 | 40785 ft | 468 kts | 75° |
| 2026-04-24 11:28 | 52.49045 | -43.08873 | 40781 ft | 468 kts | 75° |
| 2026-04-24 11:29 | 52.50886 | -42.98616 | 40777 ft | 467 kts | 75° |
| 2026-04-24 11:29 | 52.52713 | -42.88375 | 40778 ft | 467 kts | 75° |
| 2026-04-24 11:30 | 52.54524 | -42.78172 | 40776 ft | 467 kts | 75° |
| 2026-04-24 11:30 | 52.56334 | -42.67913 | 40776 ft | 468 kts | 75° |
| 2026-04-24 11:31 | 52.58138 | -42.57632 | 40777 ft | 468 kts | 75° |
| 2026-04-24 11:31 | 52.59932 | -42.47345 | 40773 ft | 468 kts | 75° |
| 2026-04-24 11:32 | 52.61718 | -42.37048 | 40775 ft | 468 kts | 75° |
| 2026-04-24 11:32 | 52.63497 | -42.26729 | 40774 ft | 468 kts | 75° |
| 2026-04-24 11:33 | 52.65255 | -42.16472 | 40766 ft | 469 kts | 75° |
| 2026-04-24 11:33 | 52.67019 | -42.06118 | 40767 ft | 468 kts | 75° |
| 2026-04-24 11:34 | 52.68768 | -41.95793 | 40767 ft | 467 kts | 75° |
| 2026-04-24 11:34 | 52.70507 | -41.85468 | 40763 ft | 468 kts | 75° |
| 2026-04-24 11:35 | 52.72246 | -41.75077 | 40760 ft | 469 kts | 75° |
| 2026-04-24 11:35 | 52.73972 | -41.64703 | 40763 ft | 468 kts | 75° |
| 2026-04-24 11:36 | 52.75675 | -41.54406 | 40758 ft | 467 kts | 75° |
| 2026-04-24 11:36 | 52.77379 | -41.44040 | 40760 ft | 467 kts | 76° |
| 2026-04-24 11:37 | 52.79071 | -41.33684 | 40760 ft | 467 kts | 76° |
| 2026-04-24 11:37 | 52.80759 | -41.23286 | 40757 ft | 468 kts | 76° |
| 2026-04-24 11:38 | 52.82427 | -41.12950 | 40760 ft | 468 kts | 76° |
| 2026-04-24 11:38 | 52.84098 | -41.02531 | 40759 ft | 468 kts | 76° |
| 2026-04-24 11:39 | 52.85759 | -40.92113 | 40755 ft | 468 kts | 76° |
| 2026-04-24 11:39 | 52.87410 | -40.81688 | 40758 ft | 468 kts | 76° |
| 2026-04-24 11:40 | 52.89040 | -40.71332 | 40758 ft | 467 kts | 76° |
| 2026-04-24 11:40 | 52.90676 | -40.60870 | 40755 ft | 469 kts | 76° |
| 2026-04-24 11:41 | 52.92307 | -40.50380 | 40749 ft | 470 kts | 76° |
| 2026-04-24 11:41 | 52.93931 | -40.39861 | 40751 ft | 471 kts | 76° |
| 2026-04-24 11:42 | 52.95545 | -40.29343 | 40751 ft | 470 kts | 76° |
| 2026-04-24 11:42 | 52.97147 | -40.18827 | 40743 ft | 469 kts | 76° |
| 2026-04-24 11:43 | 52.98726 | -40.08402 | 40749 ft | 467 kts | 76° |
| 2026-04-24 11:43 | 53.00077 | -39.97851 | 40764 ft | 467 kts | 85° |
| 2026-04-24 11:44 | 53.00522 | -39.87076 | 40762 ft | 468 kts | 86° |
| 2026-04-24 11:44 | 53.00967 | -39.76301 | 40753 ft | 467 kts | 86° |
| 2026-04-24 11:45 | 53.01389 | -39.65527 | 40753 ft | 467 kts | 86° |
| 2026-04-24 11:45 | 53.01808 | -39.54745 | 40755 ft | 469 kts | 86° |
| 2026-04-24 11:46 | 53.02214 | -39.43963 | 40748 ft | 471 kts | 87° |
| 2026-04-24 11:46 | 53.02614 | -39.33121 | 40746 ft | 470 kts | 87° |
| 2026-04-24 11:47 | 53.03004 | -39.22268 | 40744 ft | 470 kts | 87° |
| 2026-04-24 11:47 | 53.03384 | -39.11434 | 40741 ft | 469 kts | 87° |
| 2026-04-24 11:48 | 53.03752 | -39.00627 | 40733 ft | 468 kts | 87° |
| 2026-04-24 11:48 | 53.04112 | -38.89793 | 40732 ft | 468 kts | 87° |
| 2026-04-24 11:49 | 53.04459 | -38.79042 | 40732 ft | 469 kts | 87° |
| 2026-04-24 11:49 | 53.04798 | -38.68236 | 40730 ft | 468 kts | 87° |
| 2026-04-24 11:50 | 53.05127 | -38.57410 | 40726 ft | 470 kts | 87° |
| 2026-04-24 11:50 | 53.05448 | -38.46548 | 40726 ft | 471 kts | 88° |
| 2026-04-24 11:51 | 53.05760 | -38.35655 | 40710 ft | 472 kts | 88° |
| 2026-04-24 11:51 | 53.06061 | -38.24792 | 40709 ft | 470 kts | 88° |
| 2026-04-24 11:52 | 53.06351 | -38.13972 | 40709 ft | 468 kts | 88° |
| 2026-04-24 11:52 | 53.06632 | -38.03141 | 40706 ft | 469 kts | 88° |
| 2026-04-24 11:53 | 53.06902 | -37.92318 | 40706 ft | 468 kts | 88° |
| 2026-04-24 11:53 | 53.07163 | -37.81485 | 40705 ft | 469 kts | 88° |
| 2026-04-24 11:54 | 53.07414 | -37.70629 | 40704 ft | 471 kts | 88° |
| 2026-04-24 11:54 | 53.07656 | -37.59769 | 40697 ft | 470 kts | 88° |
| 2026-04-24 11:55 | 53.07887 | -37.48936 | 40693 ft | 469 kts | 88° |
| 2026-04-24 11:55 | 53.08072 | -37.39921 | 40692 ft | 469 kts | 88° |
| 2026-04-24 11:56 | 53.08285 | -37.29042 | 40687 ft | 470 kts | 88° |
| 2026-04-24 11:56 | 53.08489 | -37.18163 | 40686 ft | 470 kts | 89° |
| 2026-04-24 11:57 | 53.08683 | -37.07313 | 40686 ft | 469 kts | 89° |
| 2026-04-24 11:57 | 53.08866 | -36.96508 | 40691 ft | 467 kts | 89° |
| 2026-04-24 11:58 | 53.09039 | -36.85685 | 40685 ft | 469 kts | 89° |
| 2026-04-24 11:58 | 53.09204 | -36.74816 | 40685 ft | 469 kts | 89° |
| 2026-04-24 11:59 | 53.09358 | -36.63957 | 40683 ft | 469 kts | 89° |
| 2026-04-24 11:59 | 53.09501 | -36.53172 | 40682 ft | 469 kts | 89° |
| 2026-04-24 12:00 | 53.09635 | -36.42327 | 40679 ft | 468 kts | 89° |
| 2026-04-24 12:00 | 53.09760 | -36.31526 | 40677 ft | 466 kts | 89° |
| 2026-04-24 12:01 | 53.09873 | -36.20734 | 40667 ft | 468 kts | 89° |
| 2026-04-24 12:01 | 53.09910 | -36.17091 | 40670 ft | 469 kts | 89° |
| 2026-04-24 12:02 | 53.10000 | -36.07551 | 40669 ft | 471 kts | 89° |
| 2026-04-24 12:02 | 53.10093 | -35.96688 | 40666 ft | 468 kts | 89° |
| 2026-04-24 12:03 | 53.10175 | -35.85887 | 40654 ft | 467 kts | 89° |